createdAt,value
2023-01-23T01:20:05.134Z,101507.58
2023-01-23T01:22:32.286Z,101508.63
2023-01-23T01:24:59.131Z,101505.48
2023-01-23T01:27:25.974Z,101503.11
2023-01-23T01:29:53.543Z,101503.55
2023-01-23T01:32:20.283Z,101503.63
2023-01-23T01:34:48.353Z,101499.27
2023-01-23T01:37:16.214Z,101501.49
2023-01-23T01:39:43.090Z,101494.34
2023-01-23T01:42:09.909Z,101496.52
2023-01-23T01:45:00.715Z,101497.02
2023-01-23T01:47:27.766Z,101500.60
2023-01-23T01:50:00.471Z,101502.20
2023-01-23T01:52:27.605Z,101500.30
2023-01-23T01:54:58.689Z,101502.74
2023-01-23T01:57:44.613Z,101498.86
2023-01-23T02:00:15.471Z,101497.74
2023-01-23T02:02:50.100Z,101494.81
2023-01-23T02:05:29.448Z,101496.07
2023-01-23T02:08:14.341Z,101498.73
2023-01-23T02:10:46.890Z,101494.45
2023-01-23T02:13:30.014Z,101494.23
2023-01-23T02:15:56.990Z,101491.71
2023-01-23T02:18:24.010Z,101492.28
2023-01-23T02:20:52.499Z,101490.42
2023-01-23T02:23:44.527Z,101489.84
2023-01-23T02:26:15.873Z,101486.41
2023-01-23T02:28:45.280Z,101482.58
2023-01-23T02:31:14.422Z,101484.47
2023-01-23T02:33:47.682Z,101481.41
2023-01-23T02:36:20.352Z,101481.94
2023-01-23T02:39:08.699Z,101484.67
2023-01-23T02:41:40.618Z,101486.05
2023-01-23T02:44:29.258Z,101488.70
2023-01-23T02:47:04.488Z,101492.35
2023-01-23T02:49:31.431Z,101493.24
2023-01-23T02:51:58.498Z,101495.39
2023-01-23T02:54:26.125Z,101496.55
2023-01-23T02:56:53.373Z,101495.97
2023-01-23T02:59:40.596Z,101499.61
2023-01-23T03:02:07.857Z,101496.69
2023-01-23T03:04:34.898Z,101492.56
2023-01-23T03:07:01.951Z,101493.13
2023-01-23T03:09:29.617Z,101490.17
2023-01-23T03:11:56.876Z,101491.81
2023-01-23T03:14:24.459Z,101490.74
2023-01-23T03:16:54.654Z,101487.78
2023-01-23T03:19:24.517Z,101492.98
2023-01-23T03:21:51.519Z,101492.12
2023-01-23T03:24:18.812Z,101492.80
2023-01-23T03:26:47.052Z,101491.63
2023-01-23T03:29:37.292Z,101491.43
2023-01-23T03:32:05.254Z,101490.15
2023-01-23T03:34:32.257Z,101494.66
2023-01-23T03:36:59.868Z,101496.86
2023-01-23T03:39:45.823Z,101497.63
2023-01-23T03:42:12.764Z,101504.91
2023-01-23T03:44:40.118Z,101500.45
2023-01-23T03:47:07.065Z,101504.18
2023-01-23T03:49:34.642Z,101498.57
2023-01-23T03:52:02.806Z,101503.27
2023-01-23T03:54:30.358Z,101510.80
2023-01-23T03:56:57.329Z,101516.59
2023-01-23T03:59:49.962Z,101520.63
2023-01-23T04:02:19.671Z,101523.98
2023-01-23T04:04:46.613Z,101528.84
2023-01-23T04:07:13.666Z,101524.61
2023-01-23T04:09:40.922Z,101524.14
2023-01-23T04:12:07.869Z,101523.73
2023-01-23T04:14:38.757Z,101524.05
2023-01-23T04:17:06.574Z,101523.17
2023-01-23T04:19:35.172Z,101524.36
2023-01-23T04:22:02.212Z,101529.04
2023-01-23T04:24:32.436Z,101530.18
2023-01-23T04:27:00.001Z,101531.58
2023-01-23T04:29:27.896Z,101529.81
2023-01-23T04:31:54.962Z,101529.44
2023-01-23T04:34:22.883Z,101529.16
2023-01-23T04:36:50.688Z,101533.13
2023-01-23T04:39:18.105Z,101534.33
2023-01-23T04:41:48.027Z,101543.38
2023-01-23T04:44:35.755Z,101547.58
2023-01-23T04:47:21.664Z,101550.89
2023-01-23T04:49:49.302Z,101556.70
2023-01-23T04:52:16.329Z,101555.61
2023-01-23T04:54:51.193Z,101556.40
2023-01-23T04:58:01.048Z,101555.31
2023-01-23T05:00:29.249Z,101556.02
2023-01-23T05:02:57.086Z,101553.91
2023-01-23T05:05:25.471Z,101550.80
2023-01-23T05:07:55.285Z,101551.66
2023-01-23T05:10:22.750Z,101553.59
2023-01-23T05:12:50.644Z,101563.13
2023-01-23T05:15:20.657Z,101559.81
2023-01-23T05:17:48.360Z,101567.92
2023-01-23T05:20:15.955Z,101569.75
2023-01-23T05:22:53.361Z,101574.42
2023-01-23T05:25:26.361Z,101576.05
2023-01-23T05:27:55.017Z,101576.52
2023-01-23T05:30:23.505Z,101575.27
2023-01-23T05:33:17.615Z,101579.59
2023-01-23T05:35:44.657Z,101578.02
2023-01-23T05:38:12.347Z,101581.13
2023-01-23T05:40:39.349Z,101582.91
2023-01-23T05:43:32.631Z,101588.43
2023-01-23T05:46:21.075Z,101587.78
2023-01-23T05:48:51.783Z,101588.94
2023-01-23T05:51:20.335Z,101591.42
2023-01-23T05:53:47.642Z,101592.91
2023-01-23T05:56:14.897Z,101592.45
2023-01-23T05:58:59.048Z,101592.67
2023-01-23T06:01:39.721Z,101597.85
2023-01-23T06:04:25.607Z,101602.80
2023-01-23T06:07:24.913Z,101605.12
2023-01-23T06:09:54.942Z,101604.11
2023-01-23T06:12:22.286Z,101609.02
2023-01-23T06:14:49.551Z,101608.91
2023-01-23T06:17:16.384Z,101605.48
2023-01-23T06:19:43.495Z,101605.02
2023-01-23T06:22:10.701Z,101603.61
2023-01-23T06:24:54.644Z,101597.89
2023-01-23T06:27:21.996Z,101592.92
2023-01-23T06:29:48.943Z,101602.59
2023-01-23T06:32:17.793Z,101611.08
2023-01-23T06:34:45.305Z,101612.04
2023-01-23T06:37:12.240Z,101609.83
2023-01-23T06:39:43.293Z,101613.38
2023-01-23T06:42:11.054Z,101614.23
2023-01-23T06:44:40.615Z,101616.52
2023-01-23T06:47:09.339Z,101613.57
2023-01-23T06:49:36.528Z,101620.83
2023-01-23T06:52:03.850Z,101628.52
2023-01-23T06:54:30.825Z,101633.98
2023-01-23T06:57:01.225Z,101638.52
2023-01-23T06:59:28.985Z,101636.13
2023-01-23T07:01:56.622Z,101641.45
2023-01-23T07:04:26.500Z,101640.29
2023-01-23T07:06:53.519Z,101637.85
2023-01-23T07:09:21.079Z,101644.63
2023-01-23T10:20:41.880Z,101676.25
2023-01-23T10:23:24.214Z,101669.31
2023-01-23T10:25:51.348Z,101671.22
2023-01-23T10:28:35.155Z,101674.42
2023-01-23T10:31:24.769Z,101669.50
2023-01-23T10:34:00.020Z,101663.41
2023-01-23T10:37:05.215Z,101663.45
2023-01-23T10:40:00.093Z,101658.77
2023-01-23T10:42:27.296Z,101655.85
2023-01-23T10:44:54.372Z,101656.87
2023-01-23T10:47:29.874Z,101651.79
2023-01-23T10:49:59.690Z,101645.23
2023-01-23T10:52:39.269Z,101644.44
2023-01-23T10:55:19.984Z,101642.23
2023-01-23T10:57:49.305Z,101646.84
2023-01-23T11:00:38.002Z,101644.15
2023-01-23T11:03:20.266Z,101641.71
2023-01-23T11:05:57.245Z,101634.81
2023-01-23T11:08:36.766Z,101638.42
2023-01-23T11:11:16.146Z,101640.10
2023-01-23T11:13:44.193Z,101638.60
2023-01-23T11:16:19.129Z,101637.75
2023-01-23T11:18:54.716Z,101641.27
2023-01-23T11:21:29.188Z,101636.90
2023-01-23T11:24:20.428Z,101638.02
2023-01-23T11:26:49.554Z,101634.58
2023-01-23T11:29:21.818Z,101628.86
2023-01-23T11:31:51.187Z,101628.85
2023-01-23T11:34:19.605Z,101625.16
2023-01-23T11:36:52.661Z,101625.34
2023-01-23T11:39:36.807Z,101623.73
2023-01-23T11:42:04.404Z,101626.23
2023-01-23T11:44:38.116Z,101630.29
2023-01-23T11:47:13.745Z,101631.33
2023-01-23T11:50:09.700Z,101628.89
2023-01-23T11:53:06.667Z,101623.42
2023-01-23T11:56:00.041Z,101626.14
2023-01-23T11:58:48.791Z,101622.73
2023-01-23T12:01:47.067Z,101622.44
2023-01-23T12:04:41.088Z,101623.20
2023-01-23T12:07:52.826Z,101623.23
2023-01-23T12:10:28.197Z,101620.96
2023-01-23T12:13:37.335Z,101623.27
2023-01-23T12:16:24.679Z,101623.45
2023-01-23T12:18:51.777Z,101621.53
2023-01-23T12:21:51.006Z,101623.90
2023-01-23T12:24:38.118Z,101620.30
2023-01-23T12:27:27.788Z,101623.00
2023-01-23T12:30:10.315Z,101625.77
2023-01-23T12:33:22.001Z,101623.59
2023-01-23T12:36:24.341Z,101622.78
2023-01-23T12:38:58.337Z,101624.67
2023-01-23T12:41:48.020Z,101632.00
2023-01-23T12:44:27.013Z,101631.02
2023-01-23T12:47:15.960Z,101634.20
2023-01-23T12:50:01.097Z,101639.58
2023-01-23T12:52:40.359Z,101635.30
2023-01-23T12:55:17.964Z,101636.75
2023-01-23T12:57:59.449Z,101638.64
2023-01-23T13:00:49.687Z,101639.96
2023-01-23T13:03:59.294Z,101640.11
2023-01-23T13:06:54.223Z,101639.78
2023-01-23T13:09:30.077Z,101636.09
2023-01-23T13:12:20.469Z,101634.90
2023-01-23T13:15:06.825Z,101632.20
2023-01-23T13:17:47.318Z,101635.39
2023-01-23T13:20:50.151Z,101636.95
2023-01-23T13:23:23.456Z,101632.33
2023-01-23T13:25:50.868Z,101630.65
2023-01-23T13:28:43.950Z,101636.33
2023-01-23T13:31:28.184Z,101639.98
2023-01-23T13:34:15.662Z,101637.52
2023-01-23T13:36:50.542Z,101638.98
2023-01-23T13:39:17.714Z,101636.93
2023-01-23T13:42:04.183Z,101636.90
2023-01-23T13:44:40.910Z,101636.11
2023-01-23T14:24:46.896Z,101647.03
2023-01-23T14:27:31.683Z,101644.53
2023-01-23T14:30:04.449Z,101644.14
2023-01-23T14:32:33.604Z,101645.33
2023-01-23T14:35:01.641Z,101648.98
2023-01-23T14:37:29.381Z,101645.34
2023-01-23T14:39:57.944Z,101645.34
2023-01-23T14:42:31.619Z,101647.39
2023-01-23T14:44:59.963Z,101649.36
2023-01-23T14:47:48.943Z,101645.16
2023-01-23T14:50:23.129Z,101646.95
2023-01-23T14:53:07.190Z,101646.35
2023-01-23T14:55:39.809Z,101645.67
2023-01-23T14:58:07.650Z,101642.52
2023-01-23T15:00:35.402Z,101641.30
2023-01-23T15:03:04.513Z,101638.48
2023-01-23T15:05:33.008Z,101641.45
2023-01-23T15:08:03.259Z,101643.61
2023-01-23T15:10:31.233Z,101644.41
2023-01-23T15:13:03.646Z,101643.83
2023-01-23T15:15:32.649Z,101646.71
2023-01-23T15:18:00.668Z,101652.40
2023-01-23T15:20:28.456Z,101654.57
2023-01-23T15:22:55.439Z,101654.56
2023-01-23T15:25:29.989Z,101655.41
2023-01-23T15:27:57.247Z,101655.38
2023-01-23T15:30:36.931Z,101660.17
2023-01-23T15:33:07.581Z,101669.85
2023-01-23T15:35:34.836Z,101671.64
2023-01-23T15:38:08.660Z,101671.89
2023-01-23T15:40:39.337Z,101669.06
2023-01-23T15:43:12.478Z,101674.81
2023-01-23T15:45:40.957Z,101672.70
2023-01-23T15:48:09.789Z,101675.57
2023-01-23T15:50:38.041Z,101679.73
2023-01-23T15:53:13.174Z,101680.36
2023-01-23T15:55:41.969Z,101682.73
2023-01-23T15:58:17.907Z,101682.06
2023-01-23T16:01:09.921Z,101685.98
2023-01-23T17:59:41.584Z,101702.61
2023-01-23T18:02:25.607Z,101703.23
2023-01-23T18:04:54.605Z,101699.91
2023-01-23T18:07:22.901Z,101698.04
2023-01-23T18:09:52.641Z,101697.24
2023-01-23T18:12:32.608Z,101702.70
2023-01-23T18:15:32.023Z,101703.47
2023-01-23T18:18:04.409Z,101700.81
2023-01-23T18:20:33.765Z,101701.23
2023-01-23T18:23:02.565Z,101699.60
2023-01-23T18:25:34.604Z,101700.88
2023-01-23T18:28:05.967Z,101698.19
2023-01-23T18:30:58.615Z,101692.03
2023-01-23T18:33:55.664Z,101698.34
2023-01-23T18:36:48.681Z,101697.91
2023-01-23T18:39:35.809Z,101699.05
2023-01-23T18:42:12.895Z,101694.92
2023-01-23T18:44:42.116Z,101689.17
2023-01-23T18:47:15.052Z,101691.20
2023-01-23T18:49:43.569Z,101692.94
2023-01-23T18:52:16.694Z,101691.30
2023-01-23T18:54:52.638Z,101692.23
2023-01-23T18:58:03.325Z,101695.29
2023-01-23T19:00:41.471Z,101696.11
2023-01-23T19:03:13.693Z,101695.66
2023-01-23T19:05:43.029Z,101695.42
2023-01-23T19:08:31.583Z,101696.57
2023-01-23T19:11:09.449Z,101696.69
2023-01-23T19:13:45.005Z,101695.61
2023-01-23T19:16:32.806Z,101693.27
2023-01-23T19:19:22.542Z,101692.52
2023-01-23T19:21:51.104Z,101687.30
2023-01-23T19:24:22.292Z,101685.15
2023-01-23T19:26:51.275Z,101688.73
2023-01-23T19:29:22.431Z,101687.54
2023-01-23T19:32:04.721Z,101690.48
2023-01-23T19:34:35.081Z,101692.59
2023-01-23T19:37:04.003Z,101692.48
2023-01-23T19:39:33.446Z,101690.00
2023-01-23T19:42:01.664Z,101690.79
2023-01-23T19:44:31.091Z,101686.87
2023-01-23T19:47:00.081Z,101687.85
2023-01-23T19:49:28.594Z,101683.54
2023-01-23T19:51:56.879Z,101683.55
2023-01-23T19:54:28.116Z,101682.05
2023-01-23T19:56:58.837Z,101680.49
2023-01-23T19:59:27.423Z,101680.92
2023-01-23T20:02:01.030Z,101682.19
2023-01-23T20:04:31.169Z,101684.61
2023-01-23T20:06:59.535Z,101685.50
2023-01-23T20:09:27.914Z,101685.29
2023-01-23T20:11:58.133Z,101685.81
2023-01-23T20:14:27.742Z,101686.86
2023-01-23T20:16:56.835Z,101687.60
2023-01-23T20:19:25.363Z,101688.42
2023-01-23T20:21:53.498Z,101689.13
2023-01-23T20:24:25.850Z,101690.95
2023-01-23T20:26:54.662Z,101695.33
2023-01-23T20:29:24.083Z,101692.55
2023-01-23T20:31:54.037Z,101693.40
2023-01-23T20:34:22.292Z,101695.41
2023-01-23T20:36:50.494Z,101693.64
2023-01-23T20:39:19.229Z,101696.14
2023-01-23T20:41:47.915Z,101693.66
2023-01-23T20:44:16.727Z,101692.20
2023-01-23T20:46:45.324Z,101693.23
2023-01-23T20:49:22.625Z,101692.21
2023-01-23T20:51:53.215Z,101694.27
2023-01-23T20:54:21.798Z,101695.77
2023-01-23T20:56:50.692Z,101693.67
2023-01-23T20:59:19.409Z,101690.64
2023-01-23T21:02:05.938Z,101685.86
2023-01-23T21:04:36.426Z,101688.32
2023-01-23T21:07:04.632Z,101694.30
2023-01-23T21:09:32.978Z,101692.96
2023-01-23T21:12:01.167Z,101691.90
2023-01-23T21:14:30.344Z,101688.09
2023-01-23T21:16:58.635Z,101682.23
2023-01-23T21:19:27.738Z,101678.33
2023-01-23T21:21:55.994Z,101679.40
2023-01-23T21:24:24.561Z,101677.75
2023-01-23T21:26:52.866Z,101680.27
2023-01-23T21:29:21.045Z,101677.77
2023-01-23T21:31:49.589Z,101677.29
2023-01-23T21:34:17.801Z,101681.19
2023-01-23T21:36:46.076Z,101681.90
2023-01-23T21:39:14.890Z,101680.30
2023-01-23T21:41:43.355Z,101680.55
2023-01-23T21:44:12.392Z,101676.95
2023-01-23T21:46:41.084Z,101671.10
2023-01-23T21:49:09.626Z,101669.73
2023-01-23T21:51:38.211Z,101667.50
2023-01-23T21:54:06.390Z,101667.15
2023-01-23T21:56:35.902Z,101667.66
2023-01-23T21:59:04.676Z,101663.62
2023-01-23T22:01:35.763Z,101662.26
2023-01-23T22:04:06.247Z,101659.90
2023-01-23T22:06:37.396Z,101658.77
2023-01-23T22:09:09.152Z,101657.93
2023-01-23T22:11:37.488Z,101658.04
2023-01-23T22:14:08.927Z,101660.17
2023-01-23T22:16:48.409Z,101658.91
2023-01-23T22:19:19.371Z,101664.90
2023-01-23T22:21:48.469Z,101661.73
2023-01-23T22:24:16.648Z,101662.27
2023-01-23T22:26:44.922Z,101665.59
2023-01-23T22:29:14.061Z,101665.58
2023-01-23T22:31:42.866Z,101665.57
2023-01-23T22:34:11.315Z,101666.79
2023-01-23T22:36:39.595Z,101666.11
2023-01-23T22:39:07.710Z,101669.30
2023-01-23T22:41:35.920Z,101668.20
2023-01-23T22:44:04.402Z,101670.43
2023-01-23T22:46:33.213Z,101668.57
2023-01-23T22:49:01.677Z,101664.11
2023-01-23T22:51:31.867Z,101664.60
2023-01-23T22:54:00.602Z,101661.35
2023-01-23T22:56:29.172Z,101663.02
2023-01-23T22:58:57.884Z,101663.05
2023-01-23T23:01:28.937Z,101661.72
2023-01-23T23:03:58.052Z,101661.09
2023-01-23T23:06:26.388Z,101658.00
2023-01-23T23:08:55.792Z,101663.62
2023-01-23T23:11:26.239Z,101660.04
2023-01-23T23:13:54.286Z,101664.13
2023-01-23T23:16:27.785Z,101662.39
2023-01-23T23:18:56.091Z,101665.32
2023-01-23T23:21:31.721Z,101663.37
2023-01-23T23:24:00.535Z,101660.02
2023-01-23T23:26:30.639Z,101662.56
2023-01-23T23:29:01.359Z,101663.90
2023-01-23T23:31:29.815Z,101660.34
2023-01-23T23:33:58.331Z,101660.68
2023-01-23T23:36:26.716Z,101658.91
2023-01-23T23:38:54.814Z,101661.93
2023-01-23T23:41:23.057Z,101658.27
2023-01-23T23:43:52.872Z,101659.92
2023-01-23T23:46:20.918Z,101662.02
2023-01-23T23:48:49.121Z,101664.68
2023-01-23T23:51:23.027Z,101663.70
2023-01-23T23:53:51.251Z,101659.27
2023-01-23T23:56:25.059Z,101660.32
2023-01-23T23:58:53.937Z,101660.09
